Brownville, Maine
Current Conditions -  °F | °C
As of 8:07 PM on Tuesday 21 Oct 2014 (Local Time) from KMLT Reporting Station
Overcast Overcast  
Wind Chill: 42°   Ceiling: 2900
Heat Index: 44°   Visibility: 10mi
Dew Point: 38°   Wind: 5mph
Humidity: 79%   Direction: 40°NE
Pressure: 30.2"   Gusts: NA
Location:  45.31°N, 69.03°W
Report Text: KMLT 220007Z AUTO 04004KT 10SM BKN029 OVC050 07/03 A3020 RMK AO2 T00670033
Loading
Personal Weather Stations






























Interactive Weather Map
Tropical Storm Tracking
New forecast layout! Learn more

10-Day Weather Forecast

Advertisements
Track Severe Weather on mobile